Time;durP1;ratioP1;P1;durP2;ratioP2;P2;SDS_P1;SDS_P2;PMS_P1;PMS_P2;Temp;Humidity;BMP_temperature;BMP_pressure;BME280_temperature;BME280_humidity;BME280_pressure;Samples;Min_cycle;Max_cycle;Signal;HPM_P1;HPM_P2
2023/06/20 00:01:23;;;;;;;11.13;5.50;;;;;;;;;;5059430;27;99101;-76
2023/06/20 00:03:49;;;;;;;9.52;5.05;;;;;;;;;;5071316;27;98387;-75
2023/06/20 00:06:16;;;;;;;9.70;4.93;;;;;;;;;;5080301;27;98932;-76
2023/06/20 00:08:42;;;;;;;11.70;5.70;;;;;;;;;;5083408;27;105160;-76
2023/06/20 00:11:09;;;;;;;11.05;5.50;;;;;;;;;;5070052;27;98970;-76
2023/06/20 00:13:36;;;;;;;10.20;5.20;;;;;;;;;;5057438;27;101206;-76
2023/06/20 00:16:03;;;;;;;14.05;5.28;;;;;;;;;;5056581;27;98331;-75
2023/06/20 00:18:29;;;;;;;9.75;4.95;;;;;;;;;;5080451;27;98802;-75
2023/06/20 00:20:56;;;;;;;10.13;5.13;;;;;;;;;;5065574;27;98801;-75
2023/06/20 00:23:24;;;;;;;10.30;5.03;;;;;;;;;;5063301;27;97478;-75
2023/06/20 00:25:51;;;;;;;10.07;5.13;;;;;;;;;;5058621;27;98108;-75
2023/06/20 00:28:18;;;;;;;10.40;5.20;;;;;;;;;;5059104;27;104098;-75
2023/06/20 00:30:45;;;;;;;10.40;5.05;;;;;;;;;;5075192;27;99210;-76
2023/06/20 00:33:11;;;;;;;12.23;5.18;;;;;;;;;;5066292;27;99255;-77
2023/06/20 00:35:38;;;;;;;11.00;5.03;;;;;;;;;;5073458;27;98286;-75
2023/06/20 00:38:06;;;;;;;10.05;5.18;;;;;;;;;;5059891;27;99099;-77
2023/06/20 00:40:33;;;;;;;11.05;5.53;;;;;;;;;;5058415;27;101339;-76
2023/06/20 00:42:59;;;;;;;9.50;4.72;;;;;;;;;;5041277;27;98207;-75
2023/06/20 00:45:27;;;;;;;;;;;;;;;;;;5057991;27;100576;-75
2023/06/20 00:47:54;;;;;;;11.93;5.00;;;;;;;;;;5061175;27;97950;-76
2023/06/20 00:50:26;;;;;;;10.32;4.95;;;;;;;;;;5069403;27;98466;-75
2023/06/20 00:52:56;;;;;;;10.73;5.35;;;;;;;;;;5059762;27;101318;-76
2023/06/20 00:55:24;;;;;;;11.20;5.30;;;;;;;;;;5058051;27;98902;-76
2023/06/20 00:57:52;;;;;;;12.45;5.20;;;;;;;;;;5065590;27;100394;-75
2023/06/20 01:00:18;;;;;;;10.68;5.13;;;;;;;;;;5060628;27;101387;-75
2023/06/20 01:02:46;;;;;;;9.75;4.88;;;;;;;;;;5071673;27;98965;-75
2023/06/20 01:05:14;;;;;;;10.60;4.88;;;;;;;;;;5057568;27;100797;-77
2023/06/20 01:08:00;;;;;;;10.18;4.72;;;;;;;;;;5040234;27;100900;-76
2023/06/20 01:10:39;;;;;;;10.02;5.68;;;;;;;;;;5057743;27;98280;-76
2023/06/20 01:13:13;;;;;;;10.50;5.15;;;;;;;;;;5095118;27;98544;-76
2023/06/20 01:15:42;;;;;;;10.02;4.88;;;;;;;;;;5057300;27;98151;-75
2023/06/20 01:18:25;;;;;;;9.80;5.05;;;;;;;;;;5058606;27;98488;-75
2023/06/20 01:20:58;;;;;;;9.50;5.05;;;;;;;;;;5059724;27;100075;-75
2023/06/20 01:23:34;;;;;;;11.40;5.25;;;;;;;;;;5056564;27;98214;-76
2023/06/20 01:26:20;;;;;;;10.10;5.15;;;;;;;;;;5059178;27;98998;-76
2023/06/20 01:28:50;;;;;;;12.57;5.63;;;;;;;;;;5056219;27;99403;-76
2023/06/20 01:31:23;;;;;;;15.40;4.68;;;;;;;;;;5057891;27;98060;-76
2023/06/20 01:33:50;;;;;;;;;;;;;;;;;;5054086;27;100068;-75
2023/06/20 01:36:18;;;;;;;14.90;4.75;;;;;;;;;;5081783;27;111825;-75
2023/06/20 01:38:46;;;;;;;13.65;5.15;;;;;;;;;;5069259;27;98247;-75
2023/06/20 01:41:15;;;;;;;10.23;5.13;;;;;;;;;;5056568;27;100857;-76
2023/06/20 01:43:44;;;;;;;10.15;4.80;;;;;;;;;;5056781;27;98293;-75
2023/06/20 01:46:12;;;;;;;11.05;5.22;;;;;;;;;;5057751;27;98781;-75
2023/06/20 01:48:40;;;;;;;9.77;5.22;;;;;;;;;;5058376;27;99701;-75
2023/06/20 01:51:06;;;;;;;9.13;4.95;;;;;;;;;;5059306;27;98706;-76
2023/06/20 01:53:34;;;;;;;11.00;5.25;;;;;;;;;;5072387;27;98959;-76
2023/06/20 01:56:01;;;;;;;10.40;5.63;;;;;;;;;;5069265;27;101563;-76
2023/06/20 01:58:29;;;;;;;11.18;5.80;;;;;;;;;;5080543;27;98929;-76
2023/06/20 02:00:57;;;;;;;9.80;4.80;;;;;;;;;;5065614;27;100895;-76
2023/06/20 02:03:27;;;;;;;9.98;5.03;;;;;;;;;;5056434;27;97618;-75
2023/06/20 02:05:54;;;;;;;10.52;5.28;;;;;;;;;;5057244;27;98152;-75
2023/06/20 02:08:22;;;;;;;13.40;5.60;;;;;;;;;;5067425;27;101314;-75
2023/06/20 02:10:50;;;;;;;11.98;5.35;;;;;;;;;;5057935;27;99417;-76
2023/06/20 02:13:17;;;;;;;10.23;5.20;;;;;;;;;;5055983;27;101904;-75
2023/06/20 02:15:45;;;;;;;10.23;5.20;;;;;;;;;;5070981;27;101542;-74
2023/06/20 02:18:12;;;;;;;11.88;5.20;;;;;;;;;;5065806;27;98143;-76
2023/06/20 02:20:39;;;;;;;;;;;;;;;;;;5061574;27;98946;-74
2023/06/20 02:23:07;;;;;;;11.23;5.25;;;;;;;;;;5058788;27;111004;-75
2023/06/20 02:25:34;;;;;;;11.00;5.32;;;;;;;;;;5056422;27;100913;-75
2023/06/20 02:28:02;;;;;;;9.77;5.10;;;;;;;;;;5058081;27;98005;-75
2023/06/20 02:30:30;;;;;;;10.23;5.35;;;;;;;;;;5057910;27;98109;-75
2023/06/20 02:32:58;;;;;;;9.75;5.32;;;;;;;;;;5058093;27;98467;-75
2023/06/20 02:35:25;;;;;;;10.90;5.43;;;;;;;;;;5075361;27;99823;-76
2023/06/20 02:37:54;;;;;;;10.32;5.32;;;;;;;;;;5057496;27;98205;-75
2023/06/20 02:40:21;;;;;;;9.63;5.32;;;;;;;;;;5039361;27;101396;-76
2023/06/20 02:42:48;;;;;;;10.80;5.57;;;;;;;;;;5060765;27;101317;-76
2023/06/20 02:45:14;;;;;;;12.05;5.75;;;;;;;;;;5059632;27;101043;-74
2023/06/20 02:47:41;;;;;;;10.55;5.70;;;;;;;;;;5072581;27;100966;-75
2023/06/20 02:50:16;;;;;;;10.90;5.78;;;;;;;;;;5077003;27;98727;-76
2023/06/20 02:53:01;;;;;;;11.32;5.28;;;;;;;;;;5073041;27;100919;-75
2023/06/20 02:55:35;;;;;;;10.63;5.78;;;;;;;;;;5066912;27;101801;-75
2023/06/20 02:58:05;;;;;;;11.57;5.70;;;;;;;;;;5064528;27;98262;-75
2023/06/20 03:00:32;;;;;;;9.20;4.93;;;;;;;;;;5066948;27;99475;-75
2023/06/20 03:03:04;;;;;;;10.63;5.32;;;;;;;;;;5056841;27;98790;-75
2023/06/20 03:05:34;;;;;;;10.32;4.72;;;;;;;;;;5072661;27;100561;-74
2023/06/20 03:08:01;;;;;;;11.35;5.38;;;;;;;;;;5054882;27;101222;-75
2023/06/20 03:10:29;;;;;;;10.63;5.20;;;;;;;;;;5074254;27;99147;-75
2023/06/20 03:12:58;;;;;;;10.27;5.32;;;;;;;;;;5057688;27;98480;-76
2023/06/20 03:15:26;;;;;;;10.45;4.78;;;;;;;;;;5055132;27;99201;-75
2023/06/20 03:17:55;;;;;;;10.70;5.90;;;;;;;;;;5056040;27;98127;-76
2023/06/20 03:20:22;;;;;;;10.55;5.40;;;;;;;;;;5055741;27;98956;-75
2023/06/20 03:22:48;;;;;;;10.52;5.13;;;;;;;;;;5055869;27;99408;-75
2023/06/20 03:25:15;;;;;;;10.80;4.93;;;;;;;;;;5057708;27;98936;-75
2023/06/20 03:27:42;;;;;;;10.82;5.35;;;;;;;;;;5069861;27;98748;-75
2023/06/20 03:30:08;;;;;;;10.50;5.68;;;;;;;;;;5065514;27;98246;-75
2023/06/20 03:32:42;;;;;;;11.13;5.60;;;;;;;;;;5055529;27;100982;-75
2023/06/20 03:35:08;;;;;;;10.15;5.25;;;;;;;;;;5062551;27;98804;-75
2023/06/20 03:37:35;;;;;;;12.13;5.50;;;;;;;;;;5074624;27;98146;-75
2023/06/20 03:40:02;;;;;;;9.10;4.80;;;;;;;;;;5077426;27;98762;-76
2023/06/20 03:42:32;;;;;;;10.48;5.05;;;;;;;;;;5056938;27;99479;-76
2023/06/20 03:44:58;;;;;;;11.18;5.28;;;;;;;;;;5057327;27;98159;-76
2023/06/20 03:47:25;;;;;;;12.43;5.80;;;;;;;;;;5057087;27;100549;-77
2023/06/20 03:49:53;;;;;;;11.23;5.00;;;;;;;;;;5054936;27;100464;-75
2023/06/20 03:52:20;;;;;;;16.63;5.78;;;;;;;;;;5061094;27;99164;-75
2023/06/20 03:54:46;;;;;;;12.35;5.78;;;;;;;;;;5078309;27;101131;-74
2023/06/20 03:57:14;;;;;;;10.20;5.40;;;;;;;;;;5078759;27;98142;-76
2023/06/20 03:59:40;;;;;;;13.20;5.40;;;;;;;;;;5076681;27;98702;-75
2023/06/20 04:02:07;;;;;;;14.20;5.53;;;;;;;;;;5069257;27;98766;-75
2023/06/20 04:04:34;;;;;;;11.77;5.60;;;;;;;;;;5080521;27;98151;-75
2023/06/20 04:07:01;;;;;;;13.60;5.68;;;;;;;;;;5074569;27;100965;-74
2023/06/20 04:09:27;;;;;;;13.43;5.82;;;;;;;;;;5059905;27;101086;-75
2023/06/20 04:11:54;;;;;;;11.88;5.60;;;;;;;;;;5076109;27;98358;-75
2023/06/20 04:14:20;;;;;;;13.00;5.82;;;;;;;;;;5079344;27;100019;-75
2023/06/20 04:16:49;;;;;;;10.10;5.32;;;;;;;;;;5077349;27;98233;-73
2023/06/20 04:19:19;;;;;;;12.23;6.40;;;;;;;;;;5071569;27;98962;-74
2023/06/20 04:21:45;;;;;;;12.98;6.07;;;;;;;;;;5072267;27;98961;-74
2023/06/20 04:24:12;;;;;;;11.80;5.38;;;;;;;;;;5077999;27;98615;-74
2023/06/20 04:26:38;;;;;;;11.18;5.70;;;;;;;;;;5079947;27;98620;-75
2023/06/20 04:29:05;;;;;;;14.40;6.35;;;;;;;;;;5078064;27;101184;-76
2023/06/20 04:31:35;;;;;;;13.35;5.80;;;;;;;;;;5073114;27;97414;-75
2023/06/20 04:34:01;;;;;;;13.18;6.00;;;;;;;;;;5070414;27;101388;-75
2023/06/20 04:36:30;;;;;;;15.85;5.82;;;;;;;;;;5062004;27;98758;-75
2023/06/20 04:38:59;;;;;;;11.55;5.47;;;;;;;;;;5057312;27;101295;-75
2023/06/20 04:41:26;;;;;;;11.63;5.82;;;;;;;;;;5058014;27;99114;-77
2023/06/20 04:43:52;;;;;;;10.98;5.32;;;;;;;;;;5057293;27;99989;-75
2023/06/20 04:46:19;;;;;;;13.27;5.75;;;;;;;;;;5073967;27;101170;-76
2023/06/20 04:48:48;;;;;;;14.70;5.82;;;;;;;;;;5059425;27;101704;-76
2023/06/20 04:51:16;;;;;;;14.85;5.80;;;;;;;;;;5050443;27;98150;-78
2023/06/20 04:53:43;;;;;;;9.95;5.20;;;;;;;;;;5079090;27;98534;-76
2023/06/20 04:56:09;;;;;;;11.18;5.65;;;;;;;;;;5076191;27;97669;-76
2023/06/20 04:58:36;;;;;;;12.35;5.82;;;;;;;;;;5077351;27;99203;-76
2023/06/20 05:01:03;;;;;;;13.48;6.28;;;;;;;;;;5076195;27;99777;-77
2023/06/20 05:03:30;;;;;;;12.40;6.90;;;;;;;;;;5076657;27;98865;-78
2023/06/20 05:05:56;;;;;;;14.43;6.60;;;;;;;;;;5077642;27;101538;-76
2023/06/20 05:08:23;;;;;;;12.10;5.93;;;;;;;;;;5077581;27;101984;-76
2023/06/20 05:10:50;;;;;;;13.00;5.93;;;;;;;;;;5060613;27;98425;-77
2023/06/20 05:13:16;;;;;;;12.35;5.88;;;;;;;;;;5080063;27;98891;-77
2023/06/20 05:15:43;;;;;;;11.82;6.00;;;;;;;;;;5063674;27;98279;-78
2023/06/20 05:18:09;;;;;;;11.75;6.10;;;;;;;;;;5066281;27;98481;-77
2023/06/20 05:20:36;;;;;;;14.15;5.85;;;;;;;;;;5077976;27;98114;-76
2023/06/20 05:23:02;;;;;;;15.80;6.93;;;;;;;;;;5068793;27;101250;-76
2023/06/20 05:25:29;;;;;;;11.05;5.78;;;;;;;;;;5039752;27;101370;-77
2023/06/20 05:27:56;;;;;;;;;;;;;;;;;;5057862;27;99556;-77
2023/06/20 05:30:23;;;;;;;14.35;6.47;;;;;;;;;;5060736;27;98111;-77
2023/06/20 05:32:51;;;;;;;11.85;6.38;;;;;;;;;;5072869;27;98806;-76
2023/06/20 05:35:18;;;;;;;12.80;6.03;;;;;;;;;;5071890;27;100744;-76
2023/06/20 05:37:49;;;;;;;10.00;5.82;;;;;;;;;;5076714;27;98662;-78
2023/06/20 05:40:16;;;;;;;11.98;6.50;;;;;;;;;;5066315;27;98901;-78
2023/06/20 05:42:43;;;;;;;11.50;6.00;;;;;;;;;;5057952;27;99114;-78
2023/06/20 05:45:09;;;;;;;13.38;7.47;;;;;;;;;;5057598;27;99055;-77
2023/06/20 05:47:36;;;;;;;11.13;6.97;;;;;;;;;;5056239;27;99054;-77
2023/06/20 05:50:03;;;;;;;11.93;6.40;;;;;;;;;;5058368;27;98259;-77
2023/06/20 05:52:30;;;;;;;12.98;6.82;;;;;;;;;;5062876;27;99154;-77
2023/06/20 05:54:57;;;;;;;13.73;6.97;;;;;;;;;;5065704;27;98720;-77
2023/06/20 05:57:23;;;;;;;12.18;6.35;;;;;;;;;;5068255;27;98177;-77
2023/06/20 05:59:51;;;;;;;15.55;7.80;;;;;;;;;;5055727;27;99046;-77
2023/06/20 06:02:19;;;;;;;12.20;7.30;;;;;;;;;;5058049;27;98506;-77
2023/06/20 06:04:45;;;;;;;14.73;7.80;;;;;;;;;;5039323;27;101730;-77
2023/06/20 06:07:12;;;;;;;13.70;8.13;;;;;;;;;;5057216;27;98564;-76
2023/06/20 06:09:39;;;;;;;15.07;8.52;;;;;;;;;;5058155;27;97528;-76
2023/06/20 06:12:05;;;;;;;16.48;8.25;;;;;;;;;;5057707;27;98164;-76
2023/06/20 06:14:32;;;;;;;13.70;7.40;;;;;;;;;;5055105;27;101032;-76
2023/06/20 06:16:59;;;;;;;11.48;6.90;;;;;;;;;;5059773;27;99107;-76
2023/06/20 06:19:25;;;;;;;14.40;8.15;;;;;;;;;;5057902;27;99324;-76
2023/06/20 06:21:52;;;;;;;14.38;7.65;;;;;;;;;;5057543;27;98741;-77
2023/06/20 06:24:21;;;;;;;13.27;7.80;;;;;;;;;;5057861;27;98515;-77
2023/06/20 06:26:49;;;;;;;14.82;8.18;;;;;;;;;;5055995;27;99131;-77
2023/06/20 06:29:17;;;;;;;13.10;7.50;;;;;;;;;;5074743;27;98189;-78
2023/06/20 06:31:44;;;;;;;13.55;8.32;;;;;;;;;;5064869;27;98408;-77
2023/06/20 06:34:16;;;;;;;13.98;7.93;;;;;;;;;;5062965;27;100462;-78
2023/06/20 06:36:44;;;;;;;15.98;8.68;;;;;;;;;;5067792;27;98627;-76
2023/06/20 06:39:12;;;;;;;16.15;9.75;;;;;;;;;;5063114;27;100088;-76
2023/06/20 06:41:38;;;;;;;16.40;8.80;;;;;;;;;;5075759;27;103981;-76
2023/06/20 06:44:05;;;;;;;18.10;8.57;;;;;;;;;;5055662;27;102048;-78
2023/06/20 06:46:32;;;;;;;20.60;8.98;;;;;;;;;;5055595;27;100269;-78
2023/06/20 06:48:58;;;;;;;18.45;9.57;;;;;;;;;;5058051;27;98150;-81
2023/06/20 06:51:25;;;;;;;17.05;10.57;;;;;;;;;;5041147;27;101397;-77
2023/06/20 06:53:51;;;;;;;19.33;11.00;;;;;;;;;;5066877;27;99308;-79
2023/06/20 06:56:18;;;;;;;16.40;9.95;;;;;;;;;;5059825;27;98199;-78
2023/06/20 06:58:44;;;;;;;17.15;9.90;;;;;;;;;;5053803;27;98834;-77
2023/06/20 07:01:11;;;;;;;16.15;10.48;;;;;;;;;;5056392;27;98793;-77
2023/06/20 07:03:38;;;;;;;17.35;9.23;;;;;;;;;;5059482;27;98696;-77
2023/06/20 07:06:04;;;;;;;17.42;10.80;;;;;;;;;;5068341;27;99857;-77
2023/06/20 07:08:31;;;;;;;18.27;10.80;;;;;;;;;;5056092;27;98552;-77
2023/06/20 07:10:57;;;;;;;16.80;10.75;;;;;;;;;;5061360;27;99665;-78
2023/06/20 07:13:24;;;;;;;15.80;9.73;;;;;;;;;;5055414;27;99038;-78
2023/06/20 07:15:51;;;;;;;17.40;9.85;;;;;;;;;;5047048;27;98297;-78
2023/06/20 07:18:17;;;;;;;14.40;8.45;;;;;;;;;;5056356;27;101182;-77
2023/06/20 07:20:44;;;;;;;17.73;11.35;;;;;;;;;;5069797;27;101653;-77
2023/06/20 07:23:10;;;;;;;16.38;10.80;;;;;;;;;;5059663;27;97395;-77
2023/06/20 07:25:37;;;;;;;14.95;7.78;;;;;;;;;;5054494;27;99644;-77
2023/06/20 07:28:03;;;;;;;17.20;11.25;;;;;;;;;;5057861;27;98639;-77
2023/06/20 07:30:31;;;;;;;18.02;11.30;;;;;;;;;;5051968;27;101152;-79
2023/06/20 07:32:57;;;;;;;18.05;11.45;;;;;;;;;;5077806;27;98828;-77
2023/06/20 07:35:24;;;;;;;20.25;12.18;;;;;;;;;;5059453;27;98623;-77
2023/06/20 07:37:51;;;;;;;21.58;12.00;;;;;;;;;;5057701;27;101028;-77
2023/06/20 07:40:17;;;;;;;18.35;11.63;;;;;;;;;;5058575;27;101637;-78
2023/06/20 07:42:44;;;;;;;15.85;10.98;;;;;;;;;;5059066;27;98511;-77
2023/06/20 07:45:10;;;;;;;21.48;12.10;;;;;;;;;;5065942;27;98902;-77
2023/06/20 07:47:37;;;;;;;16.52;10.65;;;;;;;;;;5058560;27;97647;-77
2023/06/20 07:50:04;;;;;;;18.30;11.80;;;;;;;;;;5069551;27;98285;-77
2023/06/20 07:52:32;;;;;;;18.38;12.15;;;;;;;;;;5055638;27;100874;-77
2023/06/20 07:55:01;;;;;;;16.75;12.18;;;;;;;;;;5065183;27;98996;-79
2023/06/20 07:57:33;;;;;;;17.25;11.40;;;;;;;;;;5070374;27;99162;-79
2023/06/20 08:00:00;;;;;;;15.05;10.68;;;;;;;;;;5062025;27;98859;-79
2023/06/20 08:02:28;;;;;;;17.85;11.40;;;;;;;;;;5070736;27;98225;-79
2023/06/20 08:04:55;;;;;;;17.75;11.05;;;;;;;;;;5062947;27;98628;-79
2023/06/20 08:07:21;;;;;;;15.90;9.57;;;;;;;;;;5059440;27;98917;-79
2023/06/20 08:09:48;;;;;;;14.75;9.05;;;;;;;;;;5073816;27;98224;-79
2023/06/20 08:12:14;;;;;;;14.32;7.47;;;;;;;;;;5060670;27;98015;-79
2023/06/20 08:14:41;;;;;;;14.02;7.70;;;;;;;;;;5060789;27;98655;-79
2023/06/20 08:17:07;;;;;;;15.07;8.50;;;;;;;;;;5071293;27;99221;-79
2023/06/20 08:19:34;;;;;;;14.85;8.50;;;;;;;;;;5058123;27;99552;-79
2023/06/20 08:22:01;;;;;;;11.07;6.80;;;;;;;;;;5059352;27;98172;-78
2023/06/20 08:24:27;;;;;;;12.32;7.47;;;;;;;;;;5065848;27;101310;-78
2023/06/20 08:26:54;;;;;;;13.35;7.53;;;;;;;;;;5058960;27;98621;-79
2023/06/20 08:29:20;;;;;;;11.68;6.97;;;;;;;;;;5063284;27;98638;-79
2023/06/20 08:31:47;;;;;;;11.38;7.18;;;;;;;;;;5071475;27;98788;-79
2023/06/20 08:34:13;;;;;;;10.82;7.25;;;;;;;;;;5063762;27;98730;-79
2023/06/20 08:36:40;;;;;;;13.48;8.07;;;;;;;;;;5079604;27;98608;-79
2023/06/20 08:39:06;;;;;;;12.23;6.80;;;;;;;;;;5063587;27;98885;-78
2023/06/20 08:41:33;;;;;;;10.27;6.10;;;;;;;;;;5060128;27;98958;-78
2023/06/20 08:44:00;;;;;;;15.65;8.88;;;;;;;;;;5064745;27;99837;-78
2023/06/20 08:46:27;;;;;;;14.60;8.57;;;;;;;;;;5067214;27;98804;-80
2023/06/20 08:48:54;;;;;;;13.75;7.63;;;;;;;;;;5069658;27;98519;-78
2023/06/20 08:51:21;;;;;;;12.38;7.43;;;;;;;;;;5062241;27;100503;-79
2023/06/20 08:53:47;;;;;;;;;;;;;;;;;;5060658;27;100281;-79
2023/06/20 08:56:16;;;;;;;9.85;5.80;;;;;;;;;;5077524;27;98302;-78
2023/06/20 08:58:42;;;;;;;14.13;7.88;;;;;;;;;;5071499;27;98701;-78
2023/06/20 09:01:09;;;;;;;13.15;8.27;;;;;;;;;;5062093;27;97742;-78
2023/06/20 09:03:35;;;;;;;12.30;7.40;;;;;;;;;;5068626;27;98891;-78
2023/06/20 09:06:02;;;;;;;14.60;8.82;;;;;;;;;;5056103;27;100673;-78
2023/06/20 09:08:39;;;;;;;8.35;4.35;;;;;;;;;;5058008;27;99096;-78
2023/06/20 09:11:06;;;;;;;8.52;4.40;;;;;;;;;;5069958;27;101353;-78
2023/06/20 09:13:33;;;;;;;9.70;5.18;;;;;;;;;;5074212;27;98277;-79
2023/06/20 09:16:03;;;;;;;10.48;5.18;;;;;;;;;;5058598;27;98929;-78
2023/06/20 09:18:31;;;;;;;8.60;4.40;;;;;;;;;;5057606;27;100803;-78
2023/06/20 09:21:01;;;;;;;9.75;5.30;;;;;;;;;;5057330;27;98829;-78
2023/06/20 09:23:31;;;;;;;8.77;4.95;;;;;;;;;;5048425;27;101056;-78
2023/06/20 09:26:12;;;;;;;9.13;5.00;;;;;;;;;;5056476;27;98134;-77
2023/06/20 09:28:38;;;;;;;10.75;6.10;;;;;;;;;;5058336;27;100367;-78
2023/06/20 09:31:04;;;;;;;11.50;6.85;;;;;;;;;;5058165;27;101535;-78
2023/06/20 09:33:31;;;;;;;9.55;5.15;;;;;;;;;;5069273;27;99632;-77
2023/06/20 09:36:16;;;;;;;12.52;7.30;;;;;;;;;;5069117;27;99610;-78
2023/06/20 09:38:43;;;;;;;12.57;5.70;;;;;;;;;;5060754;27;98872;-78
2023/06/20 09:41:19;;;;;;;11.68;6.15;;;;;;;;;;5069438;27;98210;-77
2023/06/20 09:43:46;;;;;;;9.55;5.50;;;;;;;;;;5069895;27;103077;-77
2023/06/20 09:46:12;;;;;;;10.00;5.10;;;;;;;;;;5061904;27;100988;-78
2023/06/20 09:48:39;;;;;;;8.88;4.70;;;;;;;;;;5058086;27;98343;-77
2023/06/20 09:51:07;;;;;;;8.45;4.45;;;;;;;;;;5058547;27;98409;-78
2023/06/20 09:53:40;;;;;;;9.88;5.25;;;;;;;;;;5067949;27;99157;-78
2023/06/20 09:56:07;;;;;;;10.18;4.75;;;;;;;;;;5071344;27;98551;-78
2023/06/20 09:58:39;;;;;;;8.32;4.28;;;;;;;;;;5050904;27;99879;-77
2023/06/20 10:01:07;;;;;;;7.53;4.18;;;;;;;;;;5075991;27;98230;-78
2023/06/20 10:03:34;;;;;;;8.10;4.63;;;;;;;;;;5064066;27;100248;-77
2023/06/20 10:06:02;;;;;;;8.77;4.47;;;;;;;;;;5062981;27;98726;-76
2023/06/20 10:08:29;;;;;;;7.32;4.18;;;;;;;;;;5067568;27;99063;-77
2023/06/20 10:10:56;;;;;;;8.43;4.53;;;;;;;;;;5057856;27;98551;-78
2023/06/20 10:13:23;;;;;;;7.25;4.18;;;;;;;;;;5058636;27;106480;-77
2023/06/20 10:15:50;;;;;;;7.03;4.10;;;;;;;;;;5069451;27;97478;-77
2023/06/20 10:18:32;;;;;;;8.02;4.05;;;;;;;;;;5062947;27;99314;-77
2023/06/20 10:21:02;;;;;;;8.90;4.90;;;;;;;;;;5057182;27;98726;-77
2023/06/20 10:23:30;;;;;;;8.02;3.88;;;;;;;;;;5070154;27;99748;-78
2023/06/20 10:25:58;;;;;;;8.90;4.03;;;;;;;;;;5076584;27;98972;-77
2023/06/20 10:28:25;;;;;;;8.70;4.32;;;;;;;;;;5064748;27;98535;-77
2023/06/20 10:30:55;;;;;;;8.38;4.13;;;;;;;;;;5063584;27;98801;-77
2023/06/20 10:33:34;;;;;;;8.93;4.38;;;;;;;;;;5059387;27;99204;-78
2023/06/20 10:36:02;;;;;;;6.75;4.03;;;;;;;;;;5065731;27;98841;-77
2023/06/20 10:38:29;;;;;;;8.68;4.35;;;;;;;;;;5063102;27;99349;-78
2023/06/20 10:41:09;;;;;;;7.38;4.30;;;;;;;;;;5063276;27;98314;-78
2023/06/20 10:43:54;;;;;;;8.88;4.30;;;;;;;;;;5055548;27;100747;-78
2023/06/20 10:46:27;;;;;;;8.73;4.28;;;;;;;;;;5059517;27;99142;-78
2023/06/20 10:48:54;;;;;;;7.30;4.40;;;;;;;;;;5069449;27;99071;-78
2023/06/20 10:51:21;;;;;;;12.68;4.43;;;;;;;;;;5072255;27;101823;-77
2023/06/20 10:53:47;;;;;;;9.18;4.28;;;;;;;;;;5074814;27;99887;-78
2023/06/20 10:56:24;;;;;;;8.85;4.38;;;;;;;;;;5063509;27;98814;-78
2023/06/20 10:58:50;;;;;;;8.27;3.60;;;;;;;;;;5073922;27;98587;-78
2023/06/20 11:01:18;;;;;;;6.60;3.60;;;;;;;;;;5072743;27;101632;-78
2023/06/20 11:03:45;;;;;;;7.75;4.30;;;;;;;;;;5072093;27;98230;-78
2023/06/20 11:06:18;;;;;;;6.70;3.78;;;;;;;;;;5076609;27;98978;-79
2023/06/20 11:08:45;;;;;;;6.88;4.00;;;;;;;;;;5060585;27;98368;-79
2023/06/20 11:11:11;;;;;;;8.60;4.00;;;;;;;;;;5058888;27;99376;-79
2023/06/20 11:13:42;;;;;;;6.45;3.70;;;;;;;;;;5065294;27;105107;-78
2023/06/20 11:16:16;;;;;;;6.70;3.58;;;;;;;;;;5058995;27;98506;-79
2023/06/20 11:18:43;;;;;;;9.18;3.50;;;;;;;;;;5068084;27;101061;-79
2023/06/20 11:21:09;;;;;;;6.93;3.58;;;;;;;;;;5063695;27;98769;-79
2023/06/20 11:23:36;;;;;;;6.28;3.63;;;;;;;;;;5076940;27;98692;-79
2023/06/20 11:26:02;;;;;;;6.20;3.15;;;;;;;;;;5058611;27;98788;-79
2023/06/20 11:28:29;;;;;;;6.90;3.33;;;;;;;;;;5060121;27;98507;-79
2023/06/20 11:30:55;;;;;;;7.38;3.45;;;;;;;;;;5064825;27;98720;-79
2023/06/20 11:33:27;;;;;;;5.93;3.15;;;;;;;;;;5073612;27;98868;-79
2023/06/20 11:35:54;;;;;;;5.93;3.28;;;;;;;;;;5077722;27;98157;-78
2023/06/20 11:38:25;;;;;;;6.75;3.50;;;;;;;;;;5069686;27;99133;-78
2023/06/20 11:41:03;;;;;;;7.03;3.80;;;;;;;;;;5065408;27;98632;-79
2023/06/20 11:43:40;;;;;;;6.13;3.20;;;;;;;;;;5068479;27;98899;-78
2023/06/20 11:46:07;;;;;;;5.75;3.03;;;;;;;;;;5071738;27;98392;-79
2023/06/20 11:48:34;;;;;;;5.60;3.03;;;;;;;;;;5066517;27;99681;-78
2023/06/20 11:51:01;;;;;;;8.35;3.33;;;;;;;;;;5068124;27;98250;-79
2023/06/20 11:53:29;;;;;;;6.85;2.95;;;;;;;;;;5066785;27;99373;-79
2023/06/20 11:55:57;;;;;;;5.65;2.97;;;;;;;;;;5066786;27;98653;-79
2023/06/20 11:58:27;;;;;;;7.10;2.92;;;;;;;;;;5067537;27;98747;-79
2023/06/20 12:01:02;;;;;;;5.50;2.70;;;;;;;;;;5066036;27;101073;-79
2023/06/20 12:03:28;;;;;;;5.88;2.97;;;;;;;;;;5067744;27;99512;-78
2023/06/20 12:05:56;;;;;;;7.82;2.55;;;;;;;;;;5067067;27;102164;-79
2023/06/20 12:08:24;;;;;;;5.38;2.70;;;;;;;;;;5068996;27;99435;-80
2023/06/20 12:10:58;;;;;;;5.40;2.63;;;;;;;;;;5066910;27;98467;-79
2023/06/20 12:13:25;;;;;;;5.32;2.75;;;;;;;;;;5062892;27;99332;-78
2023/06/20 12:15:52;;;;;;;5.75;2.50;;;;;;;;;;5065829;27;98183;-78
2023/06/20 12:18:18;;;;;;;7.03;2.60;;;;;;;;;;5065684;27;100670;-78
2023/06/20 12:20:45;;;;;;;4.90;2.47;;;;;;;;;;5065971;27;98509;-78
2023/06/20 12:23:29;;;;;;;5.38;2.53;;;;;;;;;;5066620;27;98740;-78
2023/06/20 12:25:55;;;;;;;4.03;2.47;;;;;;;;;;5066191;27;99067;-78
2023/06/20 12:28:22;;;;;;;5.25;2.70;;;;;;;;;;5067446;27;101677;-77
2023/06/20 12:30:49;;;;;;;6.10;2.67;;;;;;;;;;5068462;27;98814;-79
2023/06/20 12:33:16;;;;;;;4.70;2.30;;;;;;;;;;5063667;27;98807;-79
2023/06/20 12:35:42;;;;;;;3.47;2.20;;;;;;;;;;5062304;27;98509;-79
2023/06/20 12:38:10;;;;;;;4.35;2.20;;;;;;;;;;5064892;27;99402;-78
2023/06/20 12:40:37;;;;;;;4.65;2.50;;;;;;;;;;5061011;27;99235;-78
2023/06/20 12:43:05;;;;;;;4.65;2.10;;;;;;;;;;5046737;27;98256;-77
2023/06/20 12:45:32;;;;;;;3.67;2.20;;;;;;;;;;5076525;27;100915;-78
2023/06/20 12:48:00;;;;;;;6.43;2.80;;;;;;;;;;5065581;27;98605;-79
2023/06/20 12:50:27;;;;;;;7.65;2.90;;;;;;;;;;5065311;27;98557;-78
2023/06/20 12:52:53;;;;;;;7.43;3.30;;;;;;;;;;5066070;27;100860;-77
2023/06/20 12:55:20;;;;;;;7.68;3.20;;;;;;;;;;5059123;27;98744;-78
2023/06/20 12:57:47;;;;;;;6.35;3.28;;;;;;;;;;5072534;27;99167;-78
2023/06/20 13:00:14;;;;;;;5.13;2.75;;;;;;;;;;5070440;27;98792;-79
2023/06/20 13:02:40;;;;;;;6.95;3.08;;;;;;;;;;5065701;27;98187;-79
2023/06/20 13:05:08;;;;;;;5.88;2.83;;;;;;;;;;5066511;27;98797;-79
2023/06/20 13:07:38;;;;;;;6.95;3.13;;;;;;;;;;5053536;27;101521;-79
2023/06/20 13:10:04;;;;;;;5.65;2.95;;;;;;;;;;5069421;27;98130;-79
2023/06/20 13:12:32;;;;;;;;;;;;;;;;;;5069791;27;98317;-78
2023/06/20 13:15:00;;;;;;;5.97;2.75;;;;;;;;;;5068933;27;99098;-78
2023/06/20 13:17:33;;;;;;;6.53;3.00;;;;;;;;;;5059564;27;101371;-79
2023/06/20 13:20:00;;;;;;;5.45;3.10;;;;;;;;;;5067617;27;98759;-77
2023/06/20 13:22:27;;;;;;;6.28;3.00;;;;;;;;;;5073920;27;98709;-78
2023/06/20 13:24:54;;;;;;;8.05;2.90;;;;;;;;;;5060073;27;98979;-77
2023/06/20 13:27:21;;;;;;;7.20;3.08;;;;;;;;;;5056978;27;100700;-78
2023/06/20 13:29:48;;;;;;;7.90;3.40;;;;;;;;;;5060405;27;98410;-77
2023/06/20 13:32:14;;;;;;;5.35;2.90;;;;;;;;;;5058405;27;98405;-78
2023/06/20 13:34:41;;;;;;;6.30;3.05;;;;;;;;;;5068351;27;98377;-78
2023/06/20 13:37:08;;;;;;;;;;;;;;;;;;5065266;27;100497;-79
2023/06/20 13:39:35;;;;;;;4.93;2.75;;;;;;;;;;5064183;27;107021;-79
2023/06/20 13:42:02;;;;;;;6.60;2.80;;;;;;;;;;5061268;27;98818;-79
2023/06/20 13:44:29;;;;;;;7.43;2.70;;;;;;;;;;5069563;27;99118;-78
2023/06/20 13:46:56;;;;;;;6.03;2.80;;;;;;;;;;5058127;27;99048;-79
2023/06/20 13:49:23;;;;;;;6.32;2.65;;;;;;;;;;5057871;27;100875;-79
2023/06/20 13:51:50;;;;;;;4.70;2.60;;;;;;;;;;5064251;27;101330;-78
2023/06/20 13:54:17;;;;;;;6.28;2.67;;;;;;;;;;5063821;27;98749;-79
2023/06/20 13:56:43;;;;;;;5.28;2.50;;;;;;;;;;5074227;27;98150;-79
2023/06/20 13:59:10;;;;;;;5.30;2.60;;;;;;;;;;5059716;27;100744;-77
2023/06/20 14:01:36;;;;;;;6.82;2.78;;;;;;;;;;5065906;27;98290;-79
2023/06/20 14:04:04;;;;;;;7.10;3.42;;;;;;;;;;5068016;27;98799;-79
2023/06/20 14:06:31;;;;;;;6.13;3.00;;;;;;;;;;5073828;27;101334;-78
2023/06/20 14:08:58;;;;;;;5.57;2.75;;;;;;;;;;5077176;27;98837;-77
2023/06/20 14:11:25;;;;;;;6.78;2.72;;;;;;;;;;5068830;27;101338;-77
2023/06/20 14:13:51;;;;;;;;;;;;;;;;;;5064861;27;98662;-78
2023/06/20 14:16:19;;;;;;;6.88;3.00;;;;;;;;;;5066891;27;102459;-78
2023/06/20 14:18:45;;;;;;;5.40;2.90;;;;;;;;;;5074000;27;98542;-78
2023/06/20 14:21:15;;;;;;;5.32;2.60;;;;;;;;;;5070510;27;98191;-78
2023/06/20 14:23:42;;;;;;;5.25;2.70;;;;;;;;;;5076294;27;105842;-78
2023/06/20 14:26:08;;;;;;;4.88;2.40;;;;;;;;;;5049841;27;101186;-77
2023/06/20 14:28:35;;;;;;;;;;;;;;;;;;5076069;27;98213;-77
2023/06/20 14:31:02;;;;;;;5.68;2.70;;;;;;;;;;5070534;27;103943;-77
2023/06/20 14:33:29;;;;;;;4.72;2.40;;;;;;;;;;5064524;27;99376;-77
2023/06/20 14:35:55;;;;;;;12.88;2.65;;;;;;;;;;5055371;27;98166;-77
2023/06/20 14:38:22;;;;;;;5.03;2.53;;;;;;;;;;5057051;27;98308;-77